Time;durP1;ratioP1;P1;durP2;ratioP2;P2;SDS_P1;SDS_P2;PMS_P1;PMS_P2;Temp;Humidity;BMP_temperature;BMP_pressure;BME280_temperature;BME280_humidity;BME280_pressure;Samples;Min_cycle;Max_cycle;Signal;HPM_P1;HPM_P2
2021/12/16 00:08:29;;;;;;;29.90;16.73;;;8.00;99.90;;;;;;5053345;28;20027;-51
2021/12/16 00:11:04;;;;;;;33.42;17.00;;;8.00;99.90;;;;;;5080488;28;20012;-49
2021/12/16 00:30:06;;;;;;;31.75;17.17;;;8.00;99.90;;;;;;5091606;28;20088;-50
2021/12/16 00:33:09;;;;;;;33.78;17.33;;;8.10;99.90;;;;;;5091015;28;20070;-49
2021/12/16 00:35:32;;;;;;;32.75;17.27;;;8.10;99.90;;;;;;5090151;28;20055;-50
2021/12/16 00:37:58;;;;;;;35.00;16.98;;;8.00;99.90;;;;;;5090310;28;20063;-48
2021/12/16 00:40:23;;;;;;;32.97;18.35;;;8.00;99.90;;;;;;5079586;28;20021;-49
2021/12/16 00:42:54;;;;;;;28.95;16.70;;;8.00;99.90;;;;;;5087174;28;20036;-49
2021/12/16 00:45:35;;;;;;;36.88;19.40;;;8.10;99.90;;;;;;5090906;28;20473;-48
2021/12/16 00:48:19;;;;;;;37.30;18.92;;;8.10;99.90;;;;;;5090431;28;20065;-48
2021/12/16 00:56:18;;;;;;;38.08;18.08;;;8.20;99.90;;;;;;5007947;28;20377;-47
2021/12/16 00:58:55;;;;;;;33.83;17.67;;;8.20;99.90;;;;;;5007229;28;20026;-47
2021/12/16 01:01:37;;;;;;;32.53;17.73;;;8.20;99.90;;;;;;5052673;28;20052;-48
2021/12/16 01:34:39;;;;;;;30.73;16.23;;;8.00;99.90;;;;;;5089828;28;20125;-47
2021/12/16 01:37:38;;;;;;;37.70;18.02;;;8.00;99.90;;;;;;5089689;28;20057;-47
2021/12/16 01:45:28;;;;;;;37.95;19.45;;;8.00;99.90;;;;;;5069310;28;20116;-47
2021/12/16 01:48:37;;;;;;;43.72;21.05;;;8.00;99.90;;;;;;5068494;28;20028;-47
2021/12/16 01:50:53;;;;;;;41.97;20.98;;;7.90;99.90;;;;;;5069157;28;20024;-47
2021/12/16 01:56:22;;;;;;;37.60;19.80;;;7.90;99.90;;;;;;5069129;28;20035;-47
2021/12/16 01:58:41;;;;;;;45.30;22.40;;;7.80;99.90;;;;;;5068276;28;20095;-47
2021/12/16 02:01:17;;;;;;;41.88;22.30;;;7.80;99.90;;;;;;5067700;28;20027;-50
2021/12/16 02:03:55;;;;;;;40.92;21.92;;;7.80;99.90;;;;;;5069065;28;20320;-48
2021/12/16 02:06:58;;;;;;;40.13;20.98;;;7.80;99.90;;;;;;5069035;28;20028;-48
2021/12/16 02:09:43;;;;;;;39.85;20.80;;;7.80;99.90;;;;;;5072824;28;20008;-48
2021/12/16 02:29:12;;;;;;;43.22;22.95;;;8.00;99.90;;;;;;5068347;28;20089;-47
2021/12/16 02:34:44;;;;;;;53.20;25.02;;;8.00;99.90;;;;;;5068929;28;20190;-48
2021/12/16 02:37:16;;;;;;;45.55;23.50;;;8.00;99.90;;;;;;5068696;28;20478;-48
2021/12/16 02:39:43;;;;;;;49.15;23.77;;;8.00;99.90;;;;;;5073642;28;20032;-49
2021/12/16 02:42:17;;;;;;;51.20;25.92;;;8.00;99.90;;;;;;5077986;28;20024;-48
2021/12/16 02:50:00;;;;;;;46.28;25.25;;;8.10;99.90;;;;;;5068867;28;20040;-48
2021/12/16 02:52:27;;;;;;;49.17;26.38;;;8.00;99.90;;;;;;5068732;28;20382;-48
2021/12/16 02:54:54;;;;;;;51.00;25.08;;;8.00;99.90;;;;;;5068471;28;20066;-48
2021/12/16 02:57:20;;;;;;;50.83;25.45;;;8.00;99.90;;;;;;5066805;28;20024;-48
2021/12/16 02:59:47;;;;;;;50.30;25.75;;;8.00;99.90;;;;;;5068664;28;20031;-50
2021/12/16 03:02:16;;;;;;;54.53;25.25;;;8.00;99.90;;;;;;5072566;28;20020;-48
2021/12/16 03:04:45;;;;;;;42.28;22.65;;;8.00;99.90;;;;;;5072598;28;20025;-48
2021/12/16 03:07:14;;;;;;;46.30;24.27;;;8.00;99.90;;;;;;5072127;28;20095;-48
2021/12/16 03:12:37;;;;;;;43.72;23.58;;;8.00;99.90;;;;;;5084104;28;20047;-49
2021/12/16 03:15:02;;;;;;;53.58;24.50;;;8.10;99.90;;;;;;5092435;28;20493;-48
2021/12/16 03:17:41;;;;;;;57.13;25.63;;;8.10;99.90;;;;;;5092314;28;20270;-48
2021/12/16 03:20:25;;;;;;;47.72;23.83;;;8.10;99.90;;;;;;5092677;28;20031;-48
2021/12/16 03:23:07;;;;;;;56.97;26.13;;;8.10;99.90;;;;;;5092367;28;20028;-48
2021/12/16 03:35:41;;;;;;;52.70;27.45;;;8.10;99.90;;;;;;5092776;28;20024;-48
2021/12/16 03:38:09;;;;;;;51.25;25.52;;;8.10;99.90;;;;;;5091679;28;20038;-48
2021/12/16 03:40:37;;;;;;;57.03;27.13;;;8.10;99.90;;;;;;5078274;28;20390;-48
2021/12/16 03:43:10;;;;;;;57.42;29.15;;;8.10;99.90;;;;;;5090459;28;20492;-48
2021/12/16 03:48:41;;;;;;;55.85;28.50;;;8.00;99.90;;;;;;5090986;28;20437;-45
2021/12/16 03:51:13;;;;;;;52.45;26.98;;;8.00;99.90;;;;;;5091409;28;20028;-43
2021/12/16 03:53:42;;;;;;;52.25;27.20;;;8.00;99.90;;;;;;5091580;28;20558;-44
2021/12/16 03:56:09;;;;;;;59.92;28.85;;;8.00;99.90;;;;;;5091143;28;20393;-44
2021/12/16 03:58:34;;;;;;;54.45;27.65;;;8.10;99.90;;;;;;5090621;28;20108;-45
2021/12/16 04:01:03;;;;;;;58.58;29.73;;;8.10;99.90;;;;;;5091381;28;20111;-44
2021/12/16 04:03:28;;;;;;;58.00;30.80;;;8.00;99.90;;;;;;5091457;28;20161;-44
2021/12/16 04:05:54;;;;;;;62.10;29.08;;;8.00;99.90;;;;;;5091250;28;20103;-44
2021/12/16 04:08:21;;;;;;;57.08;29.33;;;8.00;99.90;;;;;;5090972;28;20028;-43
2021/12/16 04:11:01;;;;;;;56.63;29.85;;;8.00;99.90;;;;;;5080057;28;20024;-47
2021/12/16 04:13:27;;;;;;;;;;;8.00;99.90;;;;;;5051528;28;20020;-43
2021/12/16 04:15:53;;;;;;;63.58;28.67;;;8.00;99.90;;;;;;5051320;28;19911;-44
2021/12/16 04:18:19;;;;;;;60.53;29.65;;;8.00;99.90;;;;;;5050465;28;20029;-46
2021/12/16 04:20:45;;;;;;;61.40;29.00;;;8.00;99.90;;;;;;5050941;28;20052;-44
2021/12/16 04:23:12;;;;;;;56.05;28.40;;;8.00;99.90;;;;;;5050941;28;20397;-44
2021/12/16 04:25:41;;;;;;;56.83;28.88;;;8.00;99.90;;;;;;5050303;28;20021;-43
2021/12/16 04:28:13;;;;;;;58.92;30.38;;;8.10;99.90;;;;;;5050120;28;20070;-43
2021/12/16 04:30:39;;;;;;;54.97;28.73;;;8.10;99.90;;;;;;5050558;28;20016;-43
2021/12/16 04:33:05;;;;;;;59.17;31.05;;;8.10;99.90;;;;;;5050588;28;20538;-44
2021/12/16 04:35:30;;;;;;;53.80;28.63;;;8.10;99.90;;;;;;5050366;28;20235;-43
2021/12/16 04:37:56;;;;;;;61.22;28.67;;;8.10;99.90;;;;;;5048398;28;20033;-44
2021/12/16 04:40:22;;;;;;;57.00;28.88;;;8.10;99.90;;;;;;5073163;28;20029;-44
2021/12/16 04:42:49;;;;;;;53.20;28.00;;;8.10;99.90;;;;;;5086404;28;20607;-44
2021/12/16 04:45:18;;;;;;;60.25;30.13;;;8.10;99.90;;;;;;5090433;28;20026;-43
2021/12/16 04:47:44;;;;;;;51.92;28.20;;;8.10;99.90;;;;;;5089557;28;20058;-44
2021/12/16 04:50:11;;;;;;;64.07;30.50;;;8.10;99.90;;;;;;5090273;28;20028;-43
2021/12/16 04:52:37;;;;;;;61.33;29.75;;;8.20;99.90;;;;;;5089833;28;20115;-44
2021/12/16 04:55:06;;;;;;;60.75;29.85;;;8.10;99.90;;;;;;5079211;28;20054;-44
2021/12/16 04:57:31;;;;;;;52.22;28.50;;;8.20;99.90;;;;;;5088267;28;20270;-44
2021/12/16 04:59:57;;;;;;;50.40;27.38;;;8.20;99.90;;;;;;5090408;28;20483;-44
2021/12/16 05:02:24;;;;;;;56.15;27.70;;;8.20;99.90;;;;;;5090068;28;20042;-45
2021/12/16 05:04:50;;;;;;;65.90;30.85;;;8.20;99.90;;;;;;5090019;28;20081;-46
2021/12/16 05:07:17;;;;;;;63.33;31.20;;;8.20;99.90;;;;;;5081298;28;20486;-44
2021/12/16 05:10:25;;;;;;;61.00;29.77;;;8.20;99.90;;;;;;5085071;28;20028;-46
2021/12/16 05:12:37;;;;;;;58.53;28.83;;;8.20;99.90;;;;;;5086787;28;20035;-44
2021/12/16 05:15:13;;;;;;;64.68;30.52;;;8.20;99.90;;;;;;5089922;28;20012;-43
2021/12/16 05:17:43;;;;;;;57.53;28.73;;;8.20;99.90;;;;;;5089509;28;20032;-43
2021/12/16 05:20:31;;;;;;;58.35;27.40;;;8.20;99.90;;;;;;5089769;28;20041;-43
2021/12/16 05:28:29;;;;;;;57.88;30.23;;;8.20;99.90;;;;;;5089198;28;20054;-44
2021/12/16 05:30:56;;;;;;;52.47;27.80;;;8.20;99.90;;;;;;5088131;28;20026;-43
2021/12/16 05:33:22;;;;;;;51.97;27.85;;;8.20;99.90;;;;;;5089629;28;20032;-44
2021/12/16 05:35:49;;;;;;;62.10;29.27;;;8.20;99.90;;;;;;5089488;28;20028;-44
2021/12/16 05:38:14;;;;;;;57.97;28.70;;;8.20;99.90;;;;;;5088542;28;20028;-43
2021/12/16 05:40:40;;;;;;;53.25;28.85;;;8.30;99.90;;;;;;5080558;28;20035;-44
2021/12/16 05:43:09;;;;;;;63.50;30.55;;;8.20;99.90;;;;;;5080599;28;20090;-44
2021/12/16 05:45:36;;;;;;;57.97;28.45;;;8.30;99.90;;;;;;5088178;28;20293;-44
2021/12/16 05:48:05;;;;;;;61.33;30.17;;;8.30;99.90;;;;;;5087181;28;20189;-44
2021/12/16 05:50:34;;;;;;;60.65;30.52;;;8.30;99.90;;;;;;5089421;28;20123;-44
2021/12/16 05:53:00;;;;;;;63.00;30.35;;;8.30;99.90;;;;;;5089121;28;20032;-44
2021/12/16 05:55:25;;;;;;;66.45;31.98;;;8.30;99.90;;;;;;5089314;28;20039;-44
2021/12/16 05:57:51;;;;;;;71.75;33.35;;;8.30;99.90;;;;;;5088555;28;20035;-45
2021/12/16 06:00:24;;;;;;;66.63;32.15;;;8.30;99.90;;;;;;5089105;28;20024;-44
2021/12/16 06:02:50;;;;;;;57.15;30.70;;;8.30;99.90;;;;;;5087839;28;20050;-44
2021/12/16 06:05:16;;;;;;;65.68;32.35;;;8.30;99.90;;;;;;5088990;28;20028;-44
2021/12/16 06:07:42;;;;;;;77.00;34.33;;;8.30;99.90;;;;;;5088390;28;20020;-44
2021/12/16 06:10:17;;;;;;;63.70;32.15;;;8.30;99.90;;;;;;5080918;28;20459;-44
2021/12/16 06:12:43;;;;;;;63.60;32.00;;;8.30;99.90;;;;;;5080580;28;20378;-45
2021/12/16 06:15:18;;;;;;;65.10;33.47;;;8.30;99.90;;;;;;5089018;28;20036;-45
2021/12/16 06:28:32;;;;;;;72.55;33.47;;;8.30;99.90;;;;;;5050117;28;20113;-44
2021/12/16 06:30:59;;;;;;;73.40;33.67;;;8.20;99.90;;;;;;5070115;28;20103;-44
2021/12/16 06:33:25;;;;;;;82.68;35.60;;;8.20;99.90;;;;;;5069008;28;20081;-44
2021/12/16 06:35:52;;;;;;;86.38;37.63;;;8.20;99.90;;;;;;5072138;28;20051;-44
2021/12/16 06:38:19;;;;;;;87.65;39.97;;;8.20;99.90;;;;;;5070772;28;20143;-44
2021/12/16 06:40:45;;;;;;;81.47;36.63;;;8.20;99.90;;;;;;5074118;28;20063;-43
2021/12/16 06:43:13;;;;;;;79.95;35.75;;;8.20;99.90;;;;;;5078208;28;20051;-44
2021/12/16 06:45:42;;;;;;;77.97;35.97;;;8.20;99.90;;;;;;5072564;28;20477;-44
2021/12/16 06:48:13;;;;;;;88.07;39.63;;;8.20;99.90;;;;;;5071418;28;20020;-44
2021/12/16 06:51:08;;;;;;;80.32;38.20;;;8.20;99.90;;;;;;5073375;28;20639;-44
2021/12/16 06:53:49;;;;;;;89.38;38.28;;;8.10;99.90;;;;;;5073447;28;20021;-44
2021/12/16 06:56:26;;;;;;;86.70;39.58;;;8.20;99.90;;;;;;5072051;28;20021;-43
2021/12/16 06:59:04;;;;;;;102.72;40.97;;;8.20;99.90;;;;;;5071731;28;20100;-44
2021/12/16 07:01:38;;;;;;;94.18;41.20;;;8.20;99.90;;;;;;5071580;28;20020;-44
2021/12/16 07:04:10;;;;;;;85.18;40.33;;;8.20;99.90;;;;;;5076538;28;20115;-46
2021/12/16 07:06:38;;;;;;;112.35;42.63;;;8.20;99.90;;;;;;5072225;28;20051;-46
2021/12/16 07:09:14;;;;;;;88.78;40.38;;;8.20;99.90;;;;;;5071804;28;20052;-43
2021/12/16 07:11:42;;;;;;;99.90;41.75;;;8.20;99.90;;;;;;5072830;28;20186;-43
2021/12/16 07:14:14;;;;;;;98.95;43.03;;;8.20;99.90;;;;;;5074572;28;20232;-44
2021/12/16 07:16:39;;;;;;;100.15;42.35;;;8.20;99.90;;;;;;5073687;28;20024;-46
2021/12/16 07:19:05;;;;;;;96.75;43.10;;;8.20;99.90;;;;;;5078765;28;20028;-44
2021/12/16 07:21:37;;;;;;;97.30;42.33;;;8.20;99.90;;;;;;5073445;28;20054;-43
2021/12/16 07:24:05;;;;;;;100.80;43.22;;;8.20;99.90;;;;;;5100399;27;20043;-43
2021/12/16 07:26:30;;;;;;;97.22;42.45;;;8.20;99.90;;;;;;5080913;28;20395;-43
2021/12/16 07:28:56;;;;;;;97.40;43.70;;;8.30;99.90;;;;;;5078722;28;20023;-44
2021/12/16 07:31:21;;;;;;;108.82;46.20;;;8.30;99.90;;;;;;5082100;28;20017;-46
2021/12/16 07:33:46;;;;;;;106.10;46.10;;;8.30;99.90;;;;;;5085510;28;20657;-44
2021/12/16 07:36:18;;;;;;;107.53;46.58;;;8.30;99.90;;;;;;5092120;28;20020;-47
2021/12/16 07:38:44;;;;;;;99.63;44.53;;;8.30;99.90;;;;;;5077307;28;20107;-44
2021/12/16 07:41:09;;;;;;;117.15;46.90;;;8.30;99.90;;;;;;5070249;28;20036;-44
2021/12/16 07:43:54;;;;;;;116.65;47.58;;;8.30;99.90;;;;;;5070876;28;20032;-46
2021/12/16 07:46:20;;;;;;;109.75;45.72;;;8.30;99.90;;;;;;5068340;28;20097;-44
2021/12/16 07:48:46;;;;;;;123.22;50.33;;;8.40;99.90;;;;;;5070620;28;20031;-44
2021/12/16 07:51:11;;;;;;;107.90;47.88;;;8.30;99.90;;;;;;5071180;28;20021;-44
2021/12/16 07:53:38;;;;;;;119.25;49.35;;;8.30;99.90;;;;;;5071230;28;20024;-44
2021/12/16 07:56:04;;;;;;;108.93;48.00;;;8.40;99.90;;;;;;5071355;28;20055;-44
2021/12/16 07:58:31;;;;;;;127.47;50.67;;;8.30;99.90;;;;;;5070256;28;20079;-44
2021/12/16 08:00:57;;;;;;;120.80;50.85;;;8.40;99.90;;;;;;5070888;28;20100;-43
2021/12/16 08:03:23;;;;;;;129.20;51.33;;;8.40;99.90;;;;;;5069795;28;20024;-44
2021/12/16 08:05:54;;;;;;;111.00;46.75;;;8.40;99.90;;;;;;5071251;28;20023;-44
2021/12/16 08:08:22;;;;;;;123.22;49.38;;;8.40;99.90;;;;;;5070695;28;20016;-44
2021/12/16 08:10:48;;;;;;;126.80;50.72;;;8.40;99.90;;;;;;5078553;28;20027;-44
2021/12/16 08:13:13;;;;;;;126.80;51.40;;;8.40;99.90;;;;;;5082510;28;20024;-44
2021/12/16 08:15:40;;;;;;;124.28;50.90;;;8.50;99.90;;;;;;5090855;28;20055;-44
2021/12/16 08:18:06;;;;;;;122.28;49.30;;;8.50;99.90;;;;;;5090363;28;20042;-44
2021/12/16 08:20:32;;;;;;;130.43;53.33;;;8.50;99.90;;;;;;5091158;28;20028;-44
2021/12/16 08:22:58;;;;;;;132.70;53.63;;;8.50;99.90;;;;;;5073308;28;20116;-44
2021/12/16 08:25:27;;;;;;;134.68;52.88;;;8.50;99.90;;;;;;5068891;28;20021;-44
2021/12/16 08:27:53;;;;;;;126.35;53.15;;;8.50;99.90;;;;;;5063668;28;20024;-45
2021/12/16 08:30:24;;;;;;;131.65;52.95;;;8.50;99.90;;;;;;5067133;28;20029;-44
2021/12/16 08:32:49;;;;;;;134.32;53.88;;;8.60;99.90;;;;;;5067835;28;20025;-44
2021/12/16 08:35:15;;;;;;;126.55;51.47;;;8.60;99.90;;;;;;5061637;28;20039;-44
2021/12/16 08:37:41;;;;;;;137.95;53.75;;;8.60;99.90;;;;;;5066144;28;20036;-44
2021/12/16 08:40:14;;;;;;;140.35;54.45;;;8.60;99.90;;;;;;5069558;28;20040;-44
2021/12/16 08:42:40;;;;;;;128.07;51.47;;;8.60;99.90;;;;;;5077688;28;20043;-44
2021/12/16 08:45:10;;;;;;;135.85;54.00;;;8.70;99.90;;;;;;5065907;28;20448;-44
2021/12/16 08:47:36;;;;;;;118.60;50.05;;;8.70;99.90;;;;;;5065969;28;20016;-44
2021/12/16 08:50:02;;;;;;;125.93;52.63;;;8.70;99.90;;;;;;5064808;28;20035;-46
2021/12/16 08:52:27;;;;;;;125.20;51.92;;;8.80;99.90;;;;;;5066261;28;20224;-44
2021/12/16 08:54:53;;;;;;;124.63;51.70;;;8.90;99.90;;;;;;5065683;28;20025;-44
2021/12/16 08:57:19;;;;;;;126.07;52.00;;;8.90;99.90;;;;;;5066450;28;20036;-44
2021/12/16 08:59:46;;;;;;;129.38;51.40;;;8.90;99.90;;;;;;5068093;28;20353;-46
2021/12/16 09:02:12;;;;;;;111.53;50.95;;;8.90;99.90;;;;;;5067708;28;20031;-44
2021/12/16 09:04:38;;;;;;;103.47;46.17;;;8.90;99.90;;;;;;5068201;28;20036;-45
2021/12/16 09:07:06;;;;;;;111.80;47.67;;;8.90;99.90;;;;;;5068056;28;20013;-46
2021/12/16 09:09:35;;;;;;;119.32;48.35;;;8.90;99.90;;;;;;5067430;28;20035;-44
2021/12/16 09:12:13;;;;;;;110.22;49.53;;;8.90;99.90;;;;;;5076090;28;20123;-46
2021/12/16 09:14:40;;;;;;;108.28;47.60;;;8.90;99.90;;;;;;5087969;28;20521;-43
2021/12/16 09:17:10;;;;;;;108.35;44.80;;;8.90;99.90;;;;;;5087913;28;20496;-46
2021/12/16 09:19:45;;;;;;;112.72;50.85;;;8.90;99.90;;;;;;5078072;28;20020;-44
2021/12/16 09:22:15;;;;;;;103.50;47.25;;;8.90;99.90;;;;;;5067464;28;20086;-44
2021/12/16 09:24:41;;;;;;;117.87;50.53;;;8.90;99.90;;;;;;5067407;28;20048;-44
2021/12/16 09:27:06;;;;;;;107.50;45.70;;;8.90;99.90;;;;;;5063565;28;20093;-44
2021/12/16 09:29:32;;;;;;;118.35;47.13;;;8.90;99.90;;;;;;5053069;28;20143;-44
2021/12/16 09:31:58;;;;;;;120.47;50.67;;;8.90;99.90;;;;;;5067175;28;20068;-44
2021/12/16 09:34:24;;;;;;;119.22;49.25;;;8.90;99.90;;;;;;5064856;28;20025;-44
2021/12/16 09:36:50;;;;;;;113.85;47.00;;;8.90;99.90;;;;;;5065574;28;20038;-44
2021/12/16 09:39:21;;;;;;;103.63;46.10;;;8.90;99.90;;;;;;5066703;28;20497;-44
2021/12/16 09:41:48;;;;;;;111.55;47.38;;;8.90;99.90;;;;;;5069639;28;20024;-46
2021/12/16 09:44:16;;;;;;;105.50;47.78;;;8.90;99.90;;;;;;5085637;28;20118;-44
2021/12/16 09:46:48;;;;;;;118.30;48.13;;;8.90;99.90;;;;;;5087787;28;20059;-43
2021/12/16 09:49:14;;;;;;;103.22;46.75;;;8.90;99.90;;;;;;5087652;28;20024;-44
2021/12/16 09:51:47;;;;;;;91.50;43.20;;;8.90;99.90;;;;;;5080255;28;20537;-45
2021/12/16 09:54:17;;;;;;;99.95;42.42;;;8.90;99.90;;;;;;5058310;28;20028;-44
2021/12/16 09:56:46;;;;;;;96.03;45.65;;;8.90;99.90;;;;;;5059899;28;20103;-46
2021/12/16 09:59:14;;;;;;;97.57;40.97;;;8.90;99.90;;;;;;5065882;28;20555;-44
2021/12/16 10:01:42;;;;;;;100.10;41.22;;;8.90;99.90;;;;;;5067495;28;20032;-44
2021/12/16 10:04:10;;;;;;;88.82;40.67;;;8.90;99.90;;;;;;5066829;28;20387;-44
2021/12/16 10:06:38;;;;;;;89.45;38.42;;;8.90;99.90;;;;;;5066560;28;20028;-45
2021/12/16 10:09:06;;;;;;;89.40;41.10;;;8.90;99.90;;;;;;5066487;28;20312;-47
2021/12/16 10:11:34;;;;;;;95.40;40.03;;;8.90;99.90;;;;;;5074572;28;20016;-44
2021/12/16 10:14:05;;;;;;;80.05;37.20;;;9.00;99.90;;;;;;5085052;28;20334;-45
2021/12/16 10:19:20;;;;;;;87.35;36.10;;;9.00;99.90;;;;;;5086330;28;20082;-44
2021/12/16 10:21:46;;;;;;;84.47;36.58;;;9.10;99.90;;;;;;5086888;28;20032;-44
2021/12/16 10:24:24;;;;;;;75.45;36.00;;;9.10;99.90;;;;;;5086526;28;20092;-45
2021/12/16 10:27:12;;;;;;;83.47;34.40;;;9.00;99.90;;;;;;5086337;28;20401;-44
2021/12/16 10:29:47;;;;;;;81.05;35.83;;;9.00;99.90;;;;;;5062366;28;20012;-47
2021/12/16 10:32:31;;;;;;;76.05;35.42;;;9.00;99.90;;;;;;5047421;28;20063;-44
2021/12/16 10:35:02;;;;;;;83.25;36.58;;;9.00;99.90;;;;;;5046734;28;20039;-44
2021/12/16 10:37:31;;;;;;;;;;;9.00;99.90;;;;;;5046586;28;20021;-44
2021/12/16 10:40:33;;;;;;;68.25;32.17;;;9.00;99.90;;;;;;5051996;28;19913;-45
2021/12/16 10:43:02;;;;;;;81.47;32.17;;;9.00;99.90;;;;;;5076958;28;20089;-44
2021/12/16 10:45:50;;;;;;;78.78;34.13;;;9.00;99.90;;;;;;5087788;28;20025;-45
2021/12/16 10:48:34;;;;;;;81.07;34.78;;;9.00;99.90;;;;;;5084680;28;20173;-45
2021/12/16 10:51:03;;;;;;;81.72;35.53;;;9.00;99.90;;;;;;5065120;28;20112;-44
2021/12/16 10:53:49;;;;;;;77.15;33.38;;;9.00;99.90;;;;;;5066524;28;20115;-44
2021/12/16 10:56:18;;;;;;;76.18;33.17;;;9.00;99.90;;;;;;5066656;28;20039;-46
2021/12/16 10:59:00;;;;;;;78.97;34.63;;;9.00;99.90;;;;;;5065818;28;20086;-43
2021/12/16 11:01:34;;;;;;;73.82;33.35;;;9.00;99.90;;;;;;5064617;28;20024;-44
2021/12/16 11:04:01;;;;;;;81.47;33.67;;;9.00;99.90;;;;;;5067069;28;20506;-44
2021/12/16 11:06:35;;;;;;;73.85;32.05;;;9.10;99.90;;;;;;5065304;28;20486;-43
2021/12/16 11:09:32;;;;;;;63.88;29.98;;;9.10;99.90;;;;;;5063399;28;20040;-46
2021/12/16 11:12:08;;;;;;;65.88;31.77;;;9.10;99.90;;;;;;5072063;28;20459;-44
2021/12/16 11:14:35;;;;;;;65.70;30.13;;;9.10;99.90;;;;;;5086793;28;20028;-44
2021/12/16 11:17:03;;;;;;;66.38;29.88;;;9.20;99.90;;;;;;5082656;28;20028;-44
2021/12/16 11:19:55;;;;;;;60.20;28.25;;;9.20;99.90;;;;;;5066023;28;20044;-44
2021/12/16 11:22:27;;;;;;;67.63;28.50;;;9.20;99.90;;;;;;5070919;28;20683;-44
2021/12/16 11:24:53;;;;;;;54.85;25.83;;;9.30;99.90;;;;;;5070669;28;20086;-46
2021/12/16 11:27:26;;;;;;;58.90;27.38;;;9.20;99.90;;;;;;5070167;28;20012;-44
2021/12/16 11:29:53;;;;;;;60.35;27.55;;;9.30;99.90;;;;;;5071082;28;20024;-44
2021/12/16 11:32:44;;;;;;;56.08;27.23;;;9.30;99.90;;;;;;5069297;28;20025;-45
2021/12/16 11:35:26;;;;;;;57.58;26.40;;;9.30;99.90;;;;;;5070628;28;20028;-44
2021/12/16 11:37:52;;;;;;;53.03;25.13;;;9.30;99.90;;;;;;5070007;28;20055;-44
2021/12/16 11:40:19;;;;;;;53.17;24.15;;;9.30;99.90;;;;;;5073386;28;20028;-44
2021/12/16 11:43:06;;;;;;;53.92;24.98;;;9.30;99.90;;;;;;5076373;28;20040;-47
2021/12/16 11:45:37;;;;;;;42.55;22.42;;;9.30;99.90;;;;;;5070299;28;20158;-45
2021/12/16 11:48:05;;;;;;;41.22;20.10;;;9.30;99.90;;;;;;5069489;28;20028;-44
2021/12/16 11:50:40;;;;;;;45.05;21.90;;;9.30;99.90;;;;;;5070524;28;20055;-44
2021/12/16 11:53:06;;;;;;;37.92;19.80;;;9.30;99.90;;;;;;5068632;28;20032;-44
2021/12/16 11:55:37;;;;;;;42.90;20.20;;;9.30;99.90;;;;;;5068278;28;20353;-44
2021/12/16 11:58:04;;;;;;;45.20;20.55;;;9.30;99.90;;;;;;5052417;28;20386;-46
2021/12/16 12:00:37;;;;;;;42.38;20.88;;;9.30;99.90;;;;;;5064839;28;20291;-46
2021/12/16 12:03:07;;;;;;;36.83;18.05;;;9.30;99.90;;;;;;5051011;28;20037;-43
2021/12/16 12:05:44;;;;;;;43.65;20.33;;;9.30;99.90;;;;;;5068993;28;20035;-45
2021/12/16 12:08:12;;;;;;;44.05;21.13;;;9.30;99.90;;;;;;5067944;28;20071;-44
2021/12/16 12:10:41;;;;;;;40.92;19.95;;;9.30;99.90;;;;;;5075737;28;20015;-46
2021/12/16 12:13:10;;;;;;;39.55;19.15;;;9.30;99.90;;;;;;5081004;28;20024;-45
2021/12/16 12:16:02;;;;;;;41.97;17.45;;;9.30;99.90;;;;;;5068312;28;20124;-45
2021/12/16 12:18:36;;;;;;;34.38;17.42;;;9.30;99.90;;;;;;5068021;28;20016;-44
2021/12/16 12:21:36;;;;;;;30.20;16.50;;;9.30;99.90;;;;;;5067138;28;20025;-44
2021/12/16 12:24:04;;;;;;;33.17;16.17;;;9.30;99.90;;;;;;5035174;28;20064;-45
2021/12/16 12:26:32;;;;;;;34.35;15.73;;;9.30;99.90;;;;;;5068594;28;20040;-44
2021/12/16 12:29:08;;;;;;;35.47;16.92;;;9.30;99.90;;;;;;5068539;28;20025;-44
2021/12/16 12:31:37;;;;;;;35.47;16.25;;;9.40;99.90;;;;;;5067840;28;20033;-44
2021/12/16 12:34:03;;;;;;;34.00;16.60;;;9.30;99.90;;;;;;5068543;28;20048;-44
2021/12/16 12:36:29;;;;;;;28.80;15.35;;;9.30;99.90;;;;;;5069089;28;20063;-44
2021/12/16 12:38:54;;;;;;;33.20;16.20;;;9.30;99.90;;;;;;5066954;28;20301;-45
2021/12/16 12:41:21;;;;;;;32.17;16.65;;;9.40;99.90;;;;;;5076136;28;20104;-44
2021/12/16 12:43:46;;;;;;;34.95;16.67;;;9.40;99.90;;;;;;5068554;28;20035;-44
2021/12/16 12:46:13;;;;;;;32.53;16.60;;;9.40;99.90;;;;;;5069063;28;20389;-44
2021/12/16 12:48:41;;;;;;;35.00;17.65;;;9.40;99.90;;;;;;5066914;28;20024;-44
2021/12/16 12:51:08;;;;;;;31.50;15.07;;;9.40;99.90;;;;;;5070003;28;20353;-44
2021/12/16 12:53:48;;;;;;;29.20;14.88;;;9.50;99.90;;;;;;5079306;28;20099;-43
2021/12/16 12:56:21;;;;;;;29.00;14.77;;;9.40;99.90;;;;;;5082169;28;20020;-44
2021/12/16 12:58:50;;;;;;;28.58;14.90;;;9.50;99.90;;;;;;5067856;28;20020;-44
2021/12/16 13:01:16;;;;;;;28.35;15.55;;;9.50;99.90;;;;;;5068083;28;20054;-43
2021/12/16 13:03:42;;;;;;;33.92;15.10;;;9.50;99.90;;;;;;5068054;28;20029;-44
2021/12/16 13:06:14;;;;;;;34.38;15.13;;;9.50;99.90;;;;;;5067077;28;20024;-43
2021/12/16 13:08:43;;;;;;;28.02;15.15;;;9.60;99.90;;;;;;5052418;28;20034;-44
2021/12/16 13:11:25;;;;;;;28.27;14.43;;;9.60;99.90;;;;;;5063963;28;20033;-44
2021/12/16 13:14:18;;;;;;;27.40;14.20;;;9.60;99.90;;;;;;5065456;28;20029;-44
2021/12/16 13:17:02;;;;;;;23.20;12.23;;;9.70;99.90;;;;;;5064916;28;20029;-44
2021/12/16 13:23:28;;;;;;;27.55;13.48;;;9.80;99.90;;;;;;5066841;28;20406;-46
2021/12/16 13:26:02;;;;;;;24.73;12.93;;;9.90;99.90;;;;;;5066072;28;20374;-44
2021/12/16 13:28:43;;;;;;;19.80;10.82;;;9.90;99.90;;;;;;5063545;28;20039;-45
2021/12/16 13:31:35;;;;;;;21.27;11.85;;;9.90;99.90;;;;;;5067237;28;20032;-44
2021/12/16 13:34:02;;;;;;;19.50;9.82;;;9.90;99.90;;;;;;5066620;28;20040;-45
2021/12/16 13:36:48;;;;;;;18.85;10.35;;;9.90;99.90;;;;;;5066500;28;20017;-44
2021/12/16 13:39:20;;;;;;;19.00;9.93;;;9.90;99.90;;;;;;5065434;28;20055;-45
2021/12/16 13:42:15;;;;;;;15.70;8.77;;;9.80;99.90;;;;;;5064702;28;20048;-47
2021/12/16 13:44:46;;;;;;;17.60;9.02;;;9.80;99.90;;;;;;5063770;28;20024;-43
2021/12/16 14:04:38;;;;;;;19.23;9.93;;;9.40;99.90;;;;;;5065688;28;20424;-44
2021/12/16 14:10:04;;;;;;;15.38;9.30;;;9.30;99.90;;;;;;5065593;28;20501;-43
2021/12/16 14:15:28;;;;;;;19.55;10.52;;;9.20;99.90;;;;;;5067404;28;20124;-43
2021/12/16 14:18:10;;;;;;;23.88;9.40;;;9.20;99.90;;;;;;5066373;28;20031;-43
2021/12/16 14:23:57;;;;;;;16.55;9.15;;;9.20;99.90;;;;;;5067592;28;20047;-44
2021/12/16 14:39:51;;;;;;;19.45;9.48;;;9.20;99.90;;;;;;5066191;28;20230;-44
2021/12/16 14:45:32;;;;;;;14.95;8.27;;;9.20;99.90;;;;;;5085832;28;20031;-43
2021/12/16 14:48:21;;;;;;;16.23;8.77;;;9.20;99.90;;;;;;5086303;28;20065;-44
2021/12/16 14:51:03;;;;;;;16.35;9.00;;;9.20;99.90;;;;;;5087008;28;20035;-44
2021/12/16 14:53:38;;;;;;;12.55;7.97;;;9.20;99.90;;;;;;5087237;28;20085;-44
2021/12/16 14:56:31;;;;;;;23.30;9.70;;;9.20;99.90;;;;;;5088884;28;20035;-44
2021/12/16 14:59:11;;;;;;;17.00;8.82;;;9.20;99.90;;;;;;5074895;28;20036;-43
2021/12/16 15:01:40;;;;;;;16.97;8.83;;;9.20;99.90;;;;;;5091132;28;20046;-44
2021/12/16 15:04:08;;;;;;;15.75;9.48;;;9.10;99.90;;;;;;5091220;28;20289;-43
2021/12/16 15:06:44;;;;;;;14.82;9.07;;;9.10;99.90;;;;;;5091695;28;20020;-45
2021/12/16 15:09:23;;;;;;;13.23;8.35;;;9.10;99.90;;;;;;5090014;28;20099;-43
2021/12/16 15:12:01;;;;;;;13.75;8.50;;;9.00;99.90;;;;;;5083465;28;20015;-43
2021/12/16 15:15:01;;;;;;;14.05;7.82;;;8.90;99.90;;;;;;5065115;28;20166;-44
2021/12/16 15:31:42;;;;;;;11.70;6.28;;;8.90;99.90;;;;;;5068485;28;20111;-44
2021/12/16 15:38:19;;;;;;;10.50;6.82;;;8.50;99.90;;;;;;5048410;28;20094;-44
2021/12/16 15:43:16;;;;;;;17.10;7.50;;;8.50;99.90;;;;;;5080496;28;20032;-45
2021/12/16 15:45:51;;;;;;;11.15;6.88;;;8.50;99.90;;;;;;5070997;28;20501;-45
2021/12/16 15:48:25;;;;;;;9.55;5.28;;;8.40;99.90;;;;;;5067913;28;20028;-43
2021/12/16 15:51:02;;;;;;;11.50;5.45;;;8.40;99.90;;;;;;5068572;28;20031;-44
2021/12/16 15:53:37;;;;;;;10.10;5.68;;;8.30;99.90;;;;;;5068705;28;20520;-44
2021/12/16 15:56:26;;;;;;;9.30;5.63;;;8.30;99.90;;;;;;5068525;28;20025;-43
2021/12/16 15:58:59;;;;;;;9.40;4.85;;;8.20;99.90;;;;;;5068040;28;20475;-43
2021/12/16 16:01:27;;;;;;;9.55;4.47;;;8.20;99.90;;;;;;5068251;28;20035;-43
2021/12/16 16:03:53;;;;;;;7.13;4.65;;;8.20;99.90;;;;;;5068761;28;20020;-43
2021/12/16 16:06:19;;;;;;;7.38;5.03;;;8.10;99.90;;;;;;5068479;28;20021;-43
2021/12/16 16:08:49;;;;;;;8.77;4.90;;;8.10;99.90;;;;;;5064702;28;20024;-43
2021/12/16 16:11:21;;;;;;;6.10;4.82;;;8.10;99.90;;;;;;5071259;28;20016;-43
2021/12/16 16:13:57;;;;;;;10.77;5.38;;;8.10;99.90;;;;;;5081392;28;20061;-44
2021/12/16 16:16:31;;;;;;;7.85;5.25;;;8.10;99.90;;;;;;5089422;28;20028;-43